Time;durP1;ratioP1;P1;durP2;ratioP2;P2;SDS_P1;SDS_P2;PMS_P1;PMS_P2;Temp;Humidity;BMP_temperature;BMP_pressure;BME280_temperature;BME280_humidity;BME280_pressure;Samples;Min_cycle;Max_cycle;Signal;HPM_P1;HPM_P2
2021/06/01 06:06:27;;;;;;;5.03;4.15;;;;;;;18.38;49.61;98507.77;1682361;82;21026;-68
2021/06/01 06:08:57;;;;;;;6.92;3.77;;;;;;;18.59;50.06;98508.83;1680384;85;21002;-65
2021/06/01 06:11:26;;;;;;;7.50;4.67;;;;;;;18.77;49.22;98512.89;1679754;85;21010;-64
2021/06/01 06:13:57;;;;;;;5.15;4.50;;;;;;;18.92;49.08;98512.37;1680026;85;20990;-64
2021/06/01 06:16:27;;;;;;;3.83;3.42;;;;;;;19.08;49.00;98508.44;1675782;85;21458;-72
2021/06/01 06:18:58;;;;;;;3.72;3.02;;;;;;;19.26;47.47;98509.75;1670802;85;20947;-67
2021/06/01 06:21:25;;;;;;;4.92;3.25;;;;;;;19.42;46.95;98506.80;1671097;85;20904;-63
2021/06/01 06:23:51;;;;;;;5.00;4.00;;;;;;;19.52;47.08;98510.28;1671137;85;20962;-65
2021/06/01 06:26:18;;;;;;;26.80;21.65;;;;;;;19.60;46.86;98502.67;1671311;85;20987;-64
2021/06/01 06:28:45;;;;;;;5.60;3.87;;;;;;;19.71;46.11;98510.56;1668804;85;21679;-63
2021/06/01 06:31:13;;;;;;;7.37;3.35;;;;;;;19.86;44.65;98501.28;1668692;86;21082;-63
2021/06/01 06:33:40;;;;;;;5.47;3.37;;;;;;;19.97;45.14;98500.98;1668608;86;21004;-63
2021/06/01 06:36:08;;;;;;;4.90;3.50;;;;;;;20.12;44.72;98499.87;1668979;86;21045;-65
2021/06/01 06:38:37;;;;;;;5.62;3.98;;;;;;;20.26;44.23;98497.51;1668621;86;20995;-63
2021/06/01 06:41:13;;;;;;;5.53;3.52;;;;;;;20.40;43.97;98486.83;1668678;86;21077;-74
2021/06/01 06:43:48;;;;;;;5.37;3.47;;;;;;;20.52;43.13;98495.53;1668659;86;20955;-75
2021/06/01 06:46:22;;;;;;;4.03;3.52;;;;;;;20.57;43.84;98490.45;1668225;86;33376;-75
2021/06/01 06:48:45;;;;;;;6.47;3.70;;;;;;;20.68;43.83;98485.70;1668507;84;20936;-75
2021/06/01 06:51:13;;;;;;;7.95;4.10;;;;;;;20.79;43.65;98492.19;1668828;86;20931;-73
2021/06/01 06:53:51;;;;;;;9.10;5.37;;;;;;;20.85;43.43;98491.51;1668741;86;21106;-70
2021/06/01 06:56:10;;;;;;;6.47;3.20;;;;;;;20.91;42.99;98490.83;1666813;86;20952;-67
2021/06/01 06:58:38;;;;;;;3.80;2.58;;;;;;;21.01;42.66;98489.81;1668600;86;21448;-74
2021/06/01 07:01:04;;;;;;;4.92;2.50;;;;;;;21.14;42.44;98487.40;1668575;86;20931;-71
2021/06/01 07:03:30;;;;;;;3.87;3.02;;;;;;;21.27;41.87;98495.94;1638505;86;20939;-68
2021/06/01 07:05:58;;;;;;;7.20;2.67;;;;;;;21.34;41.27;98492.52;1673854;84;21086;-69
2021/06/01 07:08:26;;;;;;;7.08;3.10;;;;;;;21.32;41.50;98500.02;1678565;84;21013;-71
2021/06/01 07:10:53;;;;;;;24.37;17.62;;;;;;;21.28;41.73;98501.75;1669230;85;20918;-73
2021/06/01 07:13:32;;;;;;;5.28;3.45;;;;;;;21.29;41.66;98500.70;1668385;86;20914;-70
2021/06/01 07:16:00;;;;;;;5.87;2.85;;;;;;;21.35;41.52;98503.27;1668311;85;20923;-74
2021/06/01 07:18:26;;;;;;;6.90;3.52;;;;;;;21.44;41.58;98497.27;1668482;86;21430;-68
2021/06/01 07:20:57;;;;;;;5.45;2.30;;;;;;;21.54;41.14;98502.08;1649257;86;20904;-67
2021/06/01 07:23:23;;;;;;;3.37;2.02;;;;;;;21.55;40.66;98501.03;1668367;86;20890;-67
2021/06/01 07:25:49;;;;;;;3.47;2.52;;;;;;;21.56;40.76;98500.02;1668493;86;21458;-69
2021/06/01 07:28:15;;;;;;;3.72;1.87;;;;;;;21.55;41.02;98499.66;1668390;84;20962;-67
2021/06/01 07:30:42;;;;;;;3.47;1.80;;;;;;;21.55;41.46;98498.30;1668498;86;20984;-68
2021/06/01 07:33:08;;;;;;;4.83;2.20;;;;;;;21.57;40.62;98491.28;1668430;86;20914;-67
2021/06/01 07:35:36;;;;;;;2.58;2.08;;;;;;;21.68;40.17;98500.51;1668317;85;20973;-67
2021/06/01 07:38:02;;;;;;;4.08;2.00;;;;;;;21.80;40.31;98497.70;1668375;84;20902;-67
2021/06/01 07:40:28;;;;;;;2.25;1.85;;;;;;;21.92;40.44;98489.99;1668340;85;20989;-67
2021/06/01 07:42:56;;;;;;;4.97;2.22;;;;;;;22.07;39.93;98488.72;1668346;86;21729;-67
2021/06/01 07:45:25;;;;;;;4.83;3.00;;;;;;;22.19;39.51;98484.56;1668158;85;21402;-66
2021/06/01 07:47:52;;;;;;;5.08;2.67;;;;;;;22.34;38.97;98481.97;1668135;85;21364;-67
2021/06/01 07:50:18;;;;;;;5.17;2.20;;;;;;;22.47;38.78;98487.38;1668368;86;21463;-66
2021/06/01 07:52:44;;;;;;;5.35;2.87;;;;;;;22.53;37.98;98482.52;1668494;85;20879;-66
2021/06/01 07:55:12;;;;;;;5.92;2.37;;;;;;;22.55;38.33;98477.20;1668276;85;20839;-64
2021/06/01 07:57:39;;;;;;;6.75;2.85;;;;;;;22.54;37.08;98480.12;1668336;86;21005;-67
2021/06/01 08:00:09;;;;;;;3.62;1.50;;;;;;;22.51;37.19;98483.22;1668375;85;20966;-67
2021/06/01 08:02:37;;;;;;;7.87;2.17;;;;;;;22.46;36.06;98484.29;1668153;85;21013;-67
2021/06/01 08:05:05;;;;;;;13.62;3.00;;;;;;;22.44;35.05;98486.36;1668397;86;20870;-67
2021/06/01 08:07:33;;;;;;;6.62;3.87;;;;;;;22.37;35.58;98491.19;1668141;86;21093;-67
2021/06/01 08:10:03;;;;;;;3.98;1.77;;;;;;;22.35;36.35;98478.17;1668394;86;21017;-67
2021/06/01 08:12:31;;;;;;;6.87;1.80;;;;;;;22.37;36.28;98486.20;1667952;86;20890;-72
2021/06/01 08:14:58;;;;;;;3.72;3.02;;;;;;;22.40;36.27;98477.64;1667884;86;21009;-66
2021/06/01 08:17:26;;;;;;;4.40;4.00;;;;;;;22.44;34.41;98478.16;1668341;84;20989;-71
2021/06/01 08:19:56;;;;;;;4.53;2.33;;;;;;;22.46;35.73;98481.02;1668880;85;21104;-67
2021/06/01 08:24:50;;;;;;;7.20;6.53;;;;;;;22.57;36.03;98483.87;1668339;85;21351;-70
2021/06/01 08:27:20;;;;;;;11.22;4.67;;;;;;;22.50;36.25;98474.70;1667948;86;21513;-77
2021/06/01 08:29:46;;;;;;;7.15;2.72;;;;;;;22.50;35.03;98482.91;1649410;86;20946;-66
2021/06/01 08:32:16;;;;;;;4.95;1.90;;;;;;;22.51;34.62;98485.95;1668361;85;21079;-73
2021/06/01 08:34:43;;;;;;;3.67;1.77;;;;;;;22.49;34.51;98486.66;1668885;85;21362;-83
2021/06/01 08:37:10;;;;;;;1.82;1.52;;;;;;;22.49;36.39;98483.93;1668502;84;20886;-69
2021/06/01 08:39:37;;;;;;;2.92;2.10;;;;;;;22.46;35.03;98482.92;1668016;86;21009;-70
2021/06/01 08:42:04;;;;;;;2.85;1.50;;;;;;;22.45;35.55;98479.84;1668416;86;20906;-68
2021/06/01 08:44:32;;;;;;;2.45;2.25;;;;;;;22.47;34.71;98475.05;1668559;85;21087;-68
2021/06/01 08:47:01;;;;;;;3.77;3.35;;;;;;;22.43;34.82;98476.44;1668491;85;21422;-68
2021/06/01 08:49:28;;;;;;;12.15;10.72;;;;;;;22.37;35.93;98484.34;1668490;85;20909;-65
2021/06/01 08:51:55;;;;;;;4.25;2.05;;;;;;;22.40;35.32;98476.80;1668236;86;20886;-74
2021/06/01 08:54:21;;;;;;;2.80;1.65;;;;;;;22.40;34.20;98478.16;1668380;85;21406;-67
2021/06/01 08:56:47;;;;;;;7.90;2.10;;;;;;;22.30;34.13;98482.50;1668170;86;21477;-65
2021/06/01 08:59:15;;;;;;;2.67;1.85;;;;;;;22.09;34.59;98478.97;1668092;86;20994;-67
2021/06/01 09:01:43;;;;;;;1.75;1.62;;;;;;;21.75;35.15;98481.52;1668042;85;20893;-66
2021/06/01 09:04:11;;;;;;;2.20;1.55;;;;;;;21.34;36.51;98496.09;1668323;85;21490;-65
2021/06/01 09:06:47;;;;;;;3.75;1.60;;;;;;;20.91;37.54;98495.45;1661766;85;20983;-65
2021/06/01 09:14:48;;;;;;;1.85;1.50;;;;;;;19.59;39.73;98510.48;1677374;85;21366;-65
2021/06/01 09:22:35;;;;;;;1.50;1.27;;;;;;;18.62;42.43;98502.23;1677355;84;21810;-66
2021/06/01 09:25:18;;;;;;;12.10;2.47;;;;;;;18.41;42.49;98503.87;1677623;85;21445;-64
2021/06/01 09:27:51;;;;;;;4.67;1.70;;;;;;;18.21;42.93;98507.21;1675388;85;20846;-64
2021/06/01 09:30:58;;;;;;;2.42;1.62;;;;;;;18.04;43.37;98511.11;1675069;85;21441;-65
2021/06/01 09:33:32;;;;;;;2.72;1.75;;;;;;;17.92;44.66;98505.52;1676890;85;20890;-65
2021/06/01 09:36:00;;;;;;;2.35;1.80;;;;;;;17.79;45.59;98496.84;1677376;85;21098;-63
2021/06/01 09:38:33;;;;;;;3.50;1.85;;;;;;;17.68;46.39;98501.45;1677218;85;20989;-65
2021/06/01 09:41:07;;;;;;;2.95;2.12;;;;;;;17.60;46.65;98504.05;1677601;85;20890;-63
2021/06/01 09:43:35;;;;;;;3.75;1.40;;;;;;;17.56;46.33;98499.06;1677428;85;21402;-65
2021/06/01 09:46:35;;;;;;;3.65;1.80;;;;;;;17.56;44.96;98501.27;1655975;85;20917;-65
2021/06/01 09:49:18;;;;;;;2.10;1.30;;;;;;;17.57;44.86;98502.99;1670793;85;20959;-65
2021/06/01 09:51:57;;;;;;;2.55;1.80;;;;;;;17.59;44.44;98500.97;1668124;86;21031;-64
2021/06/01 09:54:50;;;;;;;4.55;1.85;;;;;;;17.58;42.51;98501.13;1671201;84;20882;-64
2021/06/01 09:57:20;;;;;;;4.15;1.40;;;;;;;17.54;43.02;98493.78;1660663;84;20915;-65
2021/06/01 10:00:26;;;;;;;1.95;1.37;;;;;;;17.51;43.57;98494.08;1668294;86;20963;-64
2021/06/01 10:03:15;;;;;;;14.07;3.22;;;;;;;17.45;41.60;98494.67;1668271;85;21840;-64
2021/06/01 10:05:40;;;;;;;4.33;1.50;;;;;;;17.45;42.16;98502.81;1671678;84;20981;-64
2021/06/01 10:08:21;;;;;;;3.15;1.50;;;;;;;17.46;42.99;98499.11;1709172;82;21014;-64
2021/06/01 10:11:01;;;;;;;8.05;1.60;;;;;;;17.51;43.31;98494.92;1709959;84;20995;-66
2021/06/01 10:13:35;;;;;;;3.55;1.70;;;;;;;17.61;43.29;98488.12;1710000;83;20868;-68
2021/06/01 10:16:03;;;;;;;3.00;1.85;;;;;;;17.72;43.48;98488.92;1710192;83;21611;-69
2021/06/01 10:18:30;;;;;;;2.02;1.17;;;;;;;17.79;43.04;98487.33;1710344;83;21487;-66
2021/06/01 10:21:03;;;;;;;2.33;1.40;;;;;;;17.88;42.76;98487.31;1709949;83;20951;-65
2021/06/01 10:23:33;;;;;;;4.70;1.20;;;;;;;17.96;42.61;98491.99;1709963;83;21003;-64
2021/06/01 10:26:00;;;;;;;4.05;1.50;;;;;;;18.05;42.13;98496.52;1710174;83;21007;-65
2021/06/01 10:28:42;;;;;;;2.55;1.17;;;;;;;18.13;40.37;98496.25;1710225;83;21095;-67
2021/06/01 10:31:08;;;;;;;4.75;1.62;;;;;;;18.17;39.81;98499.03;1707600;84;20896;-65
2021/06/01 10:33:55;;;;;;;5.15;1.77;;;;;;;18.19;39.89;98491.56;1709978;84;20903;-64
2021/06/01 10:42:30;;;;;;;3.35;1.32;;;;;;;18.24;40.34;98487.88;1710485;83;21864;-65
2021/06/01 10:50:40;;;;;;;1.90;1.05;;;;;;;18.32;40.46;98492.06;1710186;82;21407;-66
2021/06/01 10:53:18;;;;;;;8.38;1.75;;;;;;;18.36;41.17;98489.38;1710155;83;20975;-68
2021/06/01 10:55:58;;;;;;;1.75;1.40;;;;;;;18.38;40.30;98491.45;1708821;80;21448;-67
2021/06/01 10:58:41;;;;;;;3.30;1.35;;;;;;;18.41;38.90;98495.70;1709609;83;21564;-68
2021/06/01 11:04:25;;;;;;;5.00;1.60;;;;;;;18.45;39.43;98493.53;1710323;83;20919;-67
2021/06/01 11:07:13;;;;;;;2.60;1.60;;;;;;;18.45;39.48;98493.53;1712099;83;20883;-66
2021/06/01 11:09:40;;;;;;;2.52;1.10;;;;;;;18.44;39.35;98489.12;1716083;83;20963;-66
2021/06/01 11:14:55;;;;;;;2.83;1.50;;;;;;;18.40;40.01;98479.91;1717559;83;20990;-65
2021/06/01 11:17:42;;;;;;;2.50;1.30;;;;;;;18.37;39.51;98481.58;1717843;83;20911;-63
2021/06/01 11:20:20;;;;;;;7.10;1.40;;;;;;;18.35;39.44;98480.02;1716880;83;21436;-64
2021/06/01 11:33:36;;;;;;;3.12;1.20;;;;;;;18.05;38.51;98484.30;1717387;83;20945;-66
2021/06/01 11:36:14;;;;;;;2.95;1.47;;;;;;;17.94;39.25;98484.50;1717266;83;21388;-63
2021/06/01 11:38:53;;;;;;;5.55;1.72;;;;;;;17.89;39.38;98478.65;1717499;83;20939;-66
2021/06/01 11:44:17;;;;;;;4.10;1.80;;;;;;;17.76;39.98;98478.13;1717709;83;20911;-65
2021/06/01 11:46:54;;;;;;;3.75;1.52;;;;;;;17.67;40.03;98480.74;1715908;83;20891;-66
2021/06/01 11:52:04;;;;;;;2.35;1.47;;;;;;;17.56;40.30;98482.78;1718019;83;21434;-65
2021/06/01 11:54:31;;;;;;;3.08;1.35;;;;;;;17.50;41.02;98488.28;1718000;83;20884;-65
2021/06/01 11:57:19;;;;;;;4.65;1.40;;;;;;;17.51;41.31;98495.44;1717931;83;21010;-65
2021/06/01 12:13:47;;;;;;;28.35;3.42;;;;;;;17.54;42.30;98494.30;1710210;83;20995;-64
2021/06/01 12:18:49;;;;;;;4.33;1.37;;;;;;;17.54;41.09;98485.64;1672240;84;20981;-65
2021/06/01 12:21:20;;;;;;;2.05;1.32;;;;;;;17.52;41.49;98479.52;1697896;83;20955;-65
2021/06/01 12:24:10;;;;;;;4.45;1.45;;;;;;;17.50;41.49;98486.93;1709924;83;21007;-65
2021/06/01 12:32:32;;;;;;;3.90;1.62;;;;;;;17.34;40.76;98485.72;1710798;83;20976;-65
